Decoded Metar for PATL (TATALINA in AK, USA) (IATA:TLJ) | Meteo·Mobile Aviation Weather
aviador You're here:

PATL Decoded Metar

TATALINA in AK, USA
Report Time2019-03-21 18:55:00
UTC Time2019-03-21 22:38:21
Flight Rules Old
WindVRB at 02 kt
Visibility9999 m
Phenomena:N/A
Clouds:N/A
Expected CloudBase > 2,000 ft AGL from Temp-Dew spread
CeilingNone
Temp-1°C (ISA -14)
Dew Point-6°C (69% RH)
AAT-4.4°C
QNH999 hPa
Density Alt-217 ft
Elevation965 ft
Report Wrong Elevation
Raw Report
METAR PATL 211855Z AUTO VRB02KT 10SM CLR M01/M06 A2951 RMK AO2 SLP008
T10091057=

Extra information for PATL:More info

Metar Taf Metar & Taf Last 4 Metars F.Rules Stats Wind Profile Meteogram Temp Stats Airport Information Weather charts Add Link Nearby VenuesMetar ALERT Operation Metar Decoded Social comments

AIRNAV info for PATL